Shipshewana, Indiana
Current Conditions -  °F | °C
As of 3:35 PM on Friday 28 Nov 2014 (Local Time) from KIRS Reporting Station
Scattered Clouds Scattered Clouds  
Wind Chill: -8°   Ceiling: Unl
Heat Index: -3°   Visibility: 10mi
Dew Point: -7°   Wind: 10mph
Humidity: 74%   Direction: 150°SSE
Pressure: 30.11"   Gusts: NA
Location:  41.67°N, 85.58°W
Report Text: KIRS 282035Z AUTO 15009KT 10SM SCT080 M03/M07 A3011 RMK AO2
Loading
Personal Weather Stations






























Interactive Weather Map New forecast layout! Learn more

10-Day Weather Forecast

Advertisements
Track Severe Weather on mobile